sensor_id;sensor_type;location;lat;lon;timestamp;P1;durP1;ratioP1;P2;durP2;ratioP2
31770;SDS011;18343;50.152;8.182;2024-02-26T00:00:23;1.95;;;1.20;;
31770;SDS011;18343;50.152;8.182;2024-02-26T00:03:07;2.17;;;1.13;;
31770;SDS011;18343;50.152;8.182;2024-02-26T00:05:52;1.20;;;1.10;;
31770;SDS011;18343;50.152;8.182;2024-02-26T00:08:37;5.47;;;1.30;;
31770;SDS011;18343;50.152;8.182;2024-02-26T00:11:22;2.15;;;1.10;;
31770;SDS011;18343;50.152;8.182;2024-02-26T00:14:07;1.75;;;1.10;;
31770;SDS011;18343;50.152;8.182;2024-02-26T00:16:52;2.22;;;1.20;;
31770;SDS011;18343;50.152;8.182;2024-02-26T00:19:36;1.77;;;1.10;;
31770;SDS011;18343;50.152;8.182;2024-02-26T00:22:21;1.98;;;1.15;;
31770;SDS011;18343;50.152;8.182;2024-02-26T00:25:06;1.27;;;0.90;;
31770;SDS011;18343;50.152;8.182;2024-02-26T00:27:52;1.70;;;1.10;;
31770;SDS011;18343;50.152;8.182;2024-02-26T00:30:36;2.92;;;1.20;;
31770;SDS011;18343;50.152;8.182;2024-02-26T00:33:21;1.35;;;1.05;;
31770;SDS011;18343;50.152;8.182;2024-02-26T00:36:06;2.45;;;1.10;;
31770;SDS011;18343;50.152;8.182;2024-02-26T00:38:50;1.88;;;1.27;;
31770;SDS011;18343;50.152;8.182;2024-02-26T00:41:37;1.65;;;1.20;;
31770;SDS011;18343;50.152;8.182;2024-02-26T00:44:24;1.25;;;1.00;;
31770;SDS011;18343;50.152;8.182;2024-02-26T00:47:09;2.47;;;1.20;;
31770;SDS011;18343;50.152;8.182;2024-02-26T00:49:53;4.65;;;1.77;;
31770;SDS011;18343;50.152;8.182;2024-02-26T00:52:38;3.85;;;1.10;;
31770;SDS011;18343;50.152;8.182;2024-02-26T00:55:22;2.00;;;1.25;;
31770;SDS011;18343;50.152;8.182;2024-02-26T00:58:07;4.43;;;1.08;;
31770;SDS011;18343;50.152;8.182;2024-02-26T01:00:54;1.80;;;1.25;;
31770;SDS011;18343;50.152;8.182;2024-02-26T01:03:39;2.65;;;1.60;;
31770;SDS011;18343;50.152;8.182;2024-02-26T01:06:23;2.92;;;1.10;;
31770;SDS011;18343;50.152;8.182;2024-02-26T01:09:08;4.20;;;0.90;;
31770;SDS011;18343;50.152;8.182;2024-02-26T01:11:52;1.85;;;0.98;;
31770;SDS011;18343;50.152;8.182;2024-02-26T01:14:37;1.75;;;0.80;;
31770;SDS011;18343;50.152;8.182;2024-02-26T01:17:23;2.17;;;1.00;;
31770;SDS011;18343;50.152;8.182;2024-02-26T01:20:07;1.77;;;0.93;;
31770;SDS011;18343;50.152;8.182;2024-02-26T01:22:53;2.33;;;0.85;;
31770;SDS011;18343;50.152;8.182;2024-02-26T01:25:37;1.10;;;1.00;;
31770;SDS011;18343;50.152;8.182;2024-02-26T01:28:22;4.25;;;1.30;;
31770;SDS011;18343;50.152;8.182;2024-02-26T01:31:07;1.38;;;0.93;;
31770;SDS011;18343;50.152;8.182;2024-02-26T01:33:55;1.38;;;1.08;;
31770;SDS011;18343;50.152;8.182;2024-02-26T01:36:39;5.18;;;1.17;;
31770;SDS011;18343;50.152;8.182;2024-02-26T01:39:23;1.70;;;1.20;;
31770;SDS011;18343;50.152;8.182;2024-02-26T01:42:08;2.60;;;1.13;;
31770;SDS011;18343;50.152;8.182;2024-02-26T01:44:53;1.75;;;1.10;;
31770;SDS011;18343;50.152;8.182;2024-02-26T01:47:37;1.67;;;1.30;;
31770;SDS011;18343;50.152;8.182;2024-02-26T01:50:23;1.83;;;1.00;;
31770;SDS011;18343;50.152;8.182;2024-02-26T01:53:07;2.17;;;1.58;;
31770;SDS011;18343;50.152;8.182;2024-02-26T01:55:53;2.72;;;1.50;;
31770;SDS011;18343;50.152;8.182;2024-02-26T01:58:37;2.70;;;1.38;;
31770;SDS011;18343;50.152;8.182;2024-02-26T02:01:22;1.90;;;1.33;;
31770;SDS011;18343;50.152;8.182;2024-02-26T02:04:08;3.00;;;1.55;;
31770;SDS011;18343;50.152;8.182;2024-02-26T02:06:55;2.00;;;1.50;;
31770;SDS011;18343;50.152;8.182;2024-02-26T02:09:42;5.05;;;1.65;;
31770;SDS011;18343;50.152;8.182;2024-02-26T02:12:26;1.73;;;1.40;;
31770;SDS011;18343;50.152;8.182;2024-02-26T02:15:11;2.60;;;1.40;;
31770;SDS011;18343;50.152;8.182;2024-02-26T02:17:57;1.83;;;1.30;;
31770;SDS011;18343;50.152;8.182;2024-02-26T02:20:43;2.72;;;1.60;;
31770;SDS011;18343;50.152;8.182;2024-02-26T02:23:28;2.17;;;1.40;;
31770;SDS011;18343;50.152;8.182;2024-02-26T02:26:13;2.13;;;1.33;;
31770;SDS011;18343;50.152;8.182;2024-02-26T02:28:58;5.10;;;1.67;;
31770;SDS011;18343;50.152;8.182;2024-02-26T02:31:43;2.20;;;1.40;;
31770;SDS011;18343;50.152;8.182;2024-02-26T02:34:28;1.70;;;1.20;;
31770;SDS011;18343;50.152;8.182;2024-02-26T02:37:14;3.53;;;1.70;;
31770;SDS011;18343;50.152;8.182;2024-02-26T02:39:59;2.88;;;1.60;;
31770;SDS011;18343;50.152;8.182;2024-02-26T02:42:43;4.05;;;1.77;;
31770;SDS011;18343;50.152;8.182;2024-02-26T02:45:28;2.42;;;1.63;;
31770;SDS011;18343;50.152;8.182;2024-02-26T02:48:12;2.72;;;1.85;;
31770;SDS011;18343;50.152;8.182;2024-02-26T02:50:57;2.83;;;1.50;;
31770;SDS011;18343;50.152;8.182;2024-02-26T02:53:43;3.17;;;1.75;;
31770;SDS011;18343;50.152;8.182;2024-02-26T02:56:27;2.78;;;1.65;;
31770;SDS011;18343;50.152;8.182;2024-02-26T02:59:13;2.00;;;1.52;;
31770;SDS011;18343;50.152;8.182;2024-02-26T03:01:57;3.50;;;1.58;;
31770;SDS011;18343;50.152;8.182;2024-02-26T03:04:42;2.45;;;1.70;;
31770;SDS011;18343;50.152;8.182;2024-02-26T03:07:27;3.30;;;1.65;;
31770;SDS011;18343;50.152;8.182;2024-02-26T03:10:13;2.72;;;1.65;;
31770;SDS011;18343;50.152;8.182;2024-02-26T03:12:58;3.92;;;1.83;;
31770;SDS011;18343;50.152;8.182;2024-02-26T03:15:42;2.88;;;1.80;;
31770;SDS011;18343;50.152;8.182;2024-02-26T03:18:27;2.90;;;1.73;;
31770;SDS011;18343;50.152;8.182;2024-02-26T03:21:11;3.80;;;1.80;;
31770;SDS011;18343;50.152;8.182;2024-02-26T03:23:56;3.80;;;1.70;;
31770;SDS011;18343;50.152;8.182;2024-02-26T03:26:42;5.00;;;1.75;;
31770;SDS011;18343;50.152;8.182;2024-02-26T03:29:26;3.08;;;2.00;;
31770;SDS011;18343;50.152;8.182;2024-02-26T03:32:11;2.25;;;1.80;;
31770;SDS011;18343;50.152;8.182;2024-02-26T03:34:55;3.33;;;2.13;;
31770;SDS011;18343;50.152;8.182;2024-02-26T03:37:40;3.63;;;2.45;;
31770;SDS011;18343;50.152;8.182;2024-02-26T03:40:25;3.47;;;2.00;;
31770;SDS011;18343;50.152;8.182;2024-02-26T03:43:10;5.72;;;1.75;;
31770;SDS011;18343;50.152;8.182;2024-02-26T03:45:55;2.97;;;2.08;;
31770;SDS011;18343;50.152;8.182;2024-02-26T03:48:42;2.42;;;1.80;;
31770;SDS011;18343;50.152;8.182;2024-02-26T03:51:27;5.13;;;1.92;;
31770;SDS011;18343;50.152;8.182;2024-02-26T03:54:11;2.60;;;2.05;;
31770;SDS011;18343;50.152;8.182;2024-02-26T03:56:56;2.38;;;1.90;;
31770;SDS011;18343;50.152;8.182;2024-02-26T03:59:42;1.95;;;1.70;;
31770;SDS011;18343;50.152;8.182;2024-02-26T04:02:26;3.65;;;1.90;;
31770;SDS011;18343;50.152;8.182;2024-02-26T04:05:11;4.95;;;1.98;;
31770;SDS011;18343;50.152;8.182;2024-02-26T04:07:56;2.85;;;1.73;;
31770;SDS011;18343;50.152;8.182;2024-02-26T04:10:41;3.40;;;1.90;;
31770;SDS011;18343;50.152;8.182;2024-02-26T04:13:27;6.00;;;1.98;;
31770;SDS011;18343;50.152;8.182;2024-02-26T04:16:13;6.15;;;2.42;;
31770;SDS011;18343;50.152;8.182;2024-02-26T04:18:57;3.33;;;2.20;;
31770;SDS011;18343;50.152;8.182;2024-02-26T04:21:42;2.97;;;1.83;;
31770;SDS011;18343;50.152;8.182;2024-02-26T04:24:27;3.97;;;2.00;;
31770;SDS011;18343;50.152;8.182;2024-02-26T04:27:12;2.55;;;2.08;;
31770;SDS011;18343;50.152;8.182;2024-02-26T04:29:56;3.92;;;2.33;;
31770;SDS011;18343;50.152;8.182;2024-02-26T04:32:42;2.78;;;2.00;;
31770;SDS011;18343;50.152;8.182;2024-02-26T04:35:26;3.95;;;2.30;;
31770;SDS011;18343;50.152;8.182;2024-02-26T04:38:11;3.33;;;2.20;;
31770;SDS011;18343;50.152;8.182;2024-02-26T04:40:55;2.45;;;2.10;;
31770;SDS011;18343;50.152;8.182;2024-02-26T04:43:40;5.63;;;2.60;;
31770;SDS011;18343;50.152;8.182;2024-02-26T04:46:24;5.03;;;2.60;;
31770;SDS011;18343;50.152;8.182;2024-02-26T04:49:10;3.17;;;2.40;;
31770;SDS011;18343;50.152;8.182;2024-02-26T04:51:55;6.68;;;2.30;;
31770;SDS011;18343;50.152;8.182;2024-02-26T04:54:39;3.65;;;2.63;;
31770;SDS011;18343;50.152;8.182;2024-02-26T04:57:23;4.95;;;2.67;;
31770;SDS011;18343;50.152;8.182;2024-02-26T05:00:08;3.90;;;2.58;;
31770;SDS011;18343;50.152;8.182;2024-02-26T05:02:55;5.38;;;2.45;;
31770;SDS011;18343;50.152;8.182;2024-02-26T05:05:41;3.80;;;1.92;;
31770;SDS011;18343;50.152;8.182;2024-02-26T05:08:26;3.10;;;2.33;;
31770;SDS011;18343;50.152;8.182;2024-02-26T05:11:11;3.60;;;2.45;;
31770;SDS011;18343;50.152;8.182;2024-02-26T05:13:55;2.90;;;2.20;;
31770;SDS011;18343;50.152;8.182;2024-02-26T05:16:39;3.42;;;1.88;;
31770;SDS011;18343;50.152;8.182;2024-02-26T05:19:24;3.28;;;2.40;;
31770;SDS011;18343;50.152;8.182;2024-02-26T05:22:10;3.45;;;2.20;;
31770;SDS011;18343;50.152;8.182;2024-02-26T05:24:54;4.10;;;2.22;;
31770;SDS011;18343;50.152;8.182;2024-02-26T05:27:39;3.97;;;2.53;;
31770;SDS011;18343;50.152;8.182;2024-02-26T05:30:23;3.92;;;2.50;;
31770;SDS011;18343;50.152;8.182;2024-02-26T05:33:08;3.67;;;2.50;;
31770;SDS011;18343;50.152;8.182;2024-02-26T05:35:52;3.88;;;2.40;;
31770;SDS011;18343;50.152;8.182;2024-02-26T05:38:38;4.30;;;2.60;;
31770;SDS011;18343;50.152;8.182;2024-02-26T05:41:23;3.42;;;2.50;;
31770;SDS011;18343;50.152;8.182;2024-02-26T05:44:07;4.15;;;2.40;;
31770;SDS011;18343;50.152;8.182;2024-02-26T05:46:51;7.32;;;2.70;;
31770;SDS011;18343;50.152;8.182;2024-02-26T05:49:36;5.90;;;2.33;;
31770;SDS011;18343;50.152;8.182;2024-02-26T05:52:21;2.70;;;1.90;;
31770;SDS011;18343;50.152;8.182;2024-02-26T05:55:07;2.58;;;2.22;;
31770;SDS011;18343;50.152;8.182;2024-02-26T05:57:52;3.13;;;2.25;;
31770;SDS011;18343;50.152;8.182;2024-02-26T06:00:37;3.05;;;2.17;;
31770;SDS011;18343;50.152;8.182;2024-02-26T06:03:22;4.03;;;2.25;;
31770;SDS011;18343;50.152;8.182;2024-02-26T06:06:06;4.68;;;2.40;;
31770;SDS011;18343;50.152;8.182;2024-02-26T06:08:53;5.63;;;2.38;;
31770;SDS011;18343;50.152;8.182;2024-02-26T06:11:39;5.68;;;2.50;;
31770;SDS011;18343;50.152;8.182;2024-02-26T06:14:23;3.17;;;2.40;;
31770;SDS011;18343;50.152;8.182;2024-02-26T06:17:08;5.82;;;2.60;;
31770;SDS011;18343;50.152;8.182;2024-02-26T06:19:52;3.38;;;2.50;;
31770;SDS011;18343;50.152;8.182;2024-02-26T06:22:37;3.65;;;2.83;;
31770;SDS011;18343;50.152;8.182;2024-02-26T06:25:23;4.50;;;2.60;;
31770;SDS011;18343;50.152;8.182;2024-02-26T06:28:09;5.22;;;2.38;;
31770;SDS011;18343;50.152;8.182;2024-02-26T06:30:54;10.05;;;2.92;;
31770;SDS011;18343;50.152;8.182;2024-02-26T06:33:38;3.60;;;2.30;;
31770;SDS011;18343;50.152;8.182;2024-02-26T06:36:23;4.00;;;2.88;;
31770;SDS011;18343;50.152;8.182;2024-02-26T06:39:07;5.43;;;2.72;;
31770;SDS011;18343;50.152;8.182;2024-02-26T06:41:53;5.20;;;2.38;;
31770;SDS011;18343;50.152;8.182;2024-02-26T06:44:39;4.28;;;2.80;;
31770;SDS011;18343;50.152;8.182;2024-02-26T06:47:23;2.70;;;2.45;;
31770;SDS011;18343;50.152;8.182;2024-02-26T06:50:08;4.45;;;2.55;;
31770;SDS011;18343;50.152;8.182;2024-02-26T06:52:55;3.33;;;2.80;;
31770;SDS011;18343;50.152;8.182;2024-02-26T06:55:40;5.00;;;2.90;;
31770;SDS011;18343;50.152;8.182;2024-02-26T06:58:25;4.88;;;3.13;;
31770;SDS011;18343;50.152;8.182;2024-02-26T07:01:11;3.42;;;2.90;;
31770;SDS011;18343;50.152;8.182;2024-02-26T07:03:56;6.68;;;3.60;;
31770;SDS011;18343;50.152;8.182;2024-02-26T07:06:41;4.35;;;3.55;;
31770;SDS011;18343;50.152;8.182;2024-02-26T07:09:26;7.32;;;3.33;;
31770;SDS011;18343;50.152;8.182;2024-02-26T07:12:11;6.10;;;3.05;;
31770;SDS011;18343;50.152;8.182;2024-02-26T07:14:55;8.93;;;3.25;;
31770;SDS011;18343;50.152;8.182;2024-02-26T07:17:42;4.65;;;3.38;;
31770;SDS011;18343;50.152;8.182;2024-02-26T07:20:26;5.78;;;3.40;;
31770;SDS011;18343;50.152;8.182;2024-02-26T07:23:11;7.22;;;4.00;;
31770;SDS011;18343;50.152;8.182;2024-02-26T07:25:55;6.97;;;3.88;;
31770;SDS011;18343;50.152;8.182;2024-02-26T07:28:40;4.35;;;3.30;;
31770;SDS011;18343;50.152;8.182;2024-02-26T07:31:25;6.25;;;3.95;;
31770;SDS011;18343;50.152;8.182;2024-02-26T07:34:11;5.68;;;4.18;;
31770;SDS011;18343;50.152;8.182;2024-02-26T07:36:55;6.47;;;4.38;;
31770;SDS011;18343;50.152;8.182;2024-02-26T07:39:42;7.78;;;4.47;;
31770;SDS011;18343;50.152;8.182;2024-02-26T07:42:27;7.32;;;4.85;;
31770;SDS011;18343;50.152;8.182;2024-02-26T07:45:13;7.38;;;4.50;;
31770;SDS011;18343;50.152;8.182;2024-02-26T07:47:58;9.27;;;5.55;;
31770;SDS011;18343;50.152;8.182;2024-02-26T07:50:43;6.93;;;5.32;;
31770;SDS011;18343;50.152;8.182;2024-02-26T07:53:28;8.77;;;5.95;;
31770;SDS011;18343;50.152;8.182;2024-02-26T07:56:13;8.75;;;5.45;;
31770;SDS011;18343;50.152;8.182;2024-02-26T07:58:57;8.95;;;6.00;;
31770;SDS011;18343;50.152;8.182;2024-02-26T08:01:42;8.38;;;5.35;;
31770;SDS011;18343;50.152;8.182;2024-02-26T08:04:27;9.25;;;5.43;;
31770;SDS011;18343;50.152;8.182;2024-02-26T08:07:12;8.75;;;5.75;;
31770;SDS011;18343;50.152;8.182;2024-02-26T08:09:57;7.63;;;5.03;;
31770;SDS011;18343;50.152;8.182;2024-02-26T08:12:42;9.90;;;5.47;;
31770;SDS011;18343;50.152;8.182;2024-02-26T08:15:26;9.40;;;5.45;;
31770;SDS011;18343;50.152;8.182;2024-02-26T08:18:11;10.85;;;5.93;;
31770;SDS011;18343;50.152;8.182;2024-02-26T08:20:58;9.52;;;4.63;;
31770;SDS011;18343;50.152;8.182;2024-02-26T08:23:44;7.30;;;5.18;;
31770;SDS011;18343;50.152;8.182;2024-02-26T08:26:29;8.25;;;4.72;;
31770;SDS011;18343;50.152;8.182;2024-02-26T08:29:13;9.00;;;4.57;;
31770;SDS011;18343;50.152;8.182;2024-02-26T08:31:58;8.23;;;4.80;;
31770;SDS011;18343;50.152;8.182;2024-02-26T08:34:43;6.22;;;4.50;;
31770;SDS011;18343;50.152;8.182;2024-02-26T08:37:29;6.40;;;4.55;;
31770;SDS011;18343;50.152;8.182;2024-02-26T08:40:15;8.30;;;4.88;;
31770;SDS011;18343;50.152;8.182;2024-02-26T08:43:01;5.78;;;4.35;;
31770;SDS011;18343;50.152;8.182;2024-02-26T08:45:45;8.02;;;4.57;;
31770;SDS011;18343;50.152;8.182;2024-02-26T08:48:30;7.90;;;4.72;;
31770;SDS011;18343;50.152;8.182;2024-02-26T08:51:14;6.80;;;4.45;;
31770;SDS011;18343;50.152;8.182;2024-02-26T08:53:59;7.70;;;4.78;;
31770;SDS011;18343;50.152;8.182;2024-02-26T08:56:44;6.55;;;4.18;;
31770;SDS011;18343;50.152;8.182;2024-02-26T08:59:29;5.93;;;4.45;;
31770;SDS011;18343;50.152;8.182;2024-02-26T09:02:14;7.82;;;4.90;;
31770;SDS011;18343;50.152;8.182;2024-02-26T09:04:59;5.90;;;4.45;;
31770;SDS011;18343;50.152;8.182;2024-02-26T09:07:43;7.70;;;5.20;;
31770;SDS011;18343;50.152;8.182;2024-02-26T09:10:28;6.90;;;5.07;;
31770;SDS011;18343;50.152;8.182;2024-02-26T09:13:14;10.80;;;5.68;;
31770;SDS011;18343;50.152;8.182;2024-02-26T09:15:58;11.55;;;5.07;;
31770;SDS011;18343;50.152;8.182;2024-02-26T09:18:43;8.75;;;5.00;;
31770;SDS011;18343;50.152;8.182;2024-02-26T09:21:27;9.23;;;4.47;;
31770;SDS011;18343;50.152;8.182;2024-02-26T09:24:12;7.82;;;5.35;;
31770;SDS011;18343;50.152;8.182;2024-02-26T09:26:56;8.52;;;5.15;;
31770;SDS011;18343;50.152;8.182;2024-02-26T09:29:42;9.65;;;4.53;;
31770;SDS011;18343;50.152;8.182;2024-02-26T09:32:27;8.80;;;4.95;;
31770;SDS011;18343;50.152;8.182;2024-02-26T09:35:11;6.75;;;4.05;;
31770;SDS011;18343;50.152;8.182;2024-02-26T09:37:56;6.43;;;4.57;;
31770;SDS011;18343;50.152;8.182;2024-02-26T09:40:40;7.22;;;4.50;;
31770;SDS011;18343;50.152;8.182;2024-02-26T09:43:25;7.78;;;4.72;;
31770;SDS011;18343;50.152;8.182;2024-02-26T09:46:17;9.77;;;4.60;;
31770;SDS011;18343;50.152;8.182;2024-02-26T09:49:02;6.78;;;4.55;;
31770;SDS011;18343;50.152;8.182;2024-02-26T09:51:47;5.85;;;4.03;;
31770;SDS011;18343;50.152;8.182;2024-02-26T09:54:34;6.93;;;4.47;;
31770;SDS011;18343;50.152;8.182;2024-02-26T09:57:19;9.38;;;4.55;;
31770;SDS011;18343;50.152;8.182;2024-02-26T10:00:04;7.35;;;4.43;;
31770;SDS011;18343;50.152;8.182;2024-02-26T10:02:53;5.53;;;4.10;;
31770;SDS011;18343;50.152;8.182;2024-02-26T10:05:41;7.93;;;4.32;;
31770;SDS011;18343;50.152;8.182;2024-02-26T10:08:25;9.25;;;5.38;;
31770;SDS011;18343;50.152;8.182;2024-02-26T10:11:11;7.47;;;5.20;;
31770;SDS011;18343;50.152;8.182;2024-02-26T10:13:56;8.70;;;5.03;;
31770;SDS011;18343;50.152;8.182;2024-02-26T10:16:41;7.53;;;4.15;;
31770;SDS011;18343;50.152;8.182;2024-02-26T10:19:28;7.05;;;4.38;;
31770;SDS011;18343;50.152;8.182;2024-02-26T10:22:14;6.45;;;3.83;;
31770;SDS011;18343;50.152;8.182;2024-02-26T10:24:58;7.28;;;4.22;;
31770;SDS011;18343;50.152;8.182;2024-02-26T10:27:43;8.25;;;4.25;;
31770;SDS011;18343;50.152;8.182;2024-02-26T10:30:29;7.20;;;4.55;;
31770;SDS011;18343;50.152;8.182;2024-02-26T10:33:14;6.55;;;4.10;;
31770;SDS011;18343;50.152;8.182;2024-02-26T10:36:00;6.65;;;4.00;;
31770;SDS011;18343;50.152;8.182;2024-02-26T10:38:44;6.03;;;3.63;;
31770;SDS011;18343;50.152;8.182;2024-02-26T10:41:29;6.30;;;4.40;;
31770;SDS011;18343;50.152;8.182;2024-02-26T10:44:14;4.93;;;3.22;;
31770;SDS011;18343;50.152;8.182;2024-02-26T10:46:58;5.70;;;3.92;;
31770;SDS011;18343;50.152;8.182;2024-02-26T10:49:45;6.88;;;3.65;;
31770;SDS011;18343;50.152;8.182;2024-02-26T10:52:32;5.65;;;3.80;;
31770;SDS011;18343;50.152;8.182;2024-02-26T10:55:18;7.25;;;4.55;;
31770;SDS011;18343;50.152;8.182;2024-02-26T10:58:06;3.80;;;3.15;;
31770;SDS011;18343;50.152;8.182;2024-02-26T11:00:54;6.63;;;3.92;;
31770;SDS011;18343;50.152;8.182;2024-02-26T11:03:40;4.60;;;3.13;;
31770;SDS011;18343;50.152;8.182;2024-02-26T11:06:26;7.53;;;4.72;;
31770;SDS011;18343;50.152;8.182;2024-02-26T11:09:14;7.20;;;4.88;;
31770;SDS011;18343;50.152;8.182;2024-02-26T11:12:00;4.50;;;3.40;;
31770;SDS011;18343;50.152;8.182;2024-02-26T11:14:46;8.73;;;3.85;;
31770;SDS011;18343;50.152;8.182;2024-02-26T11:17:30;6.57;;;3.75;;
31770;SDS011;18343;50.152;8.182;2024-02-26T11:20:16;5.00;;;3.55;;
31770;SDS011;18343;50.152;8.182;2024-02-26T11:23:03;4.47;;;3.40;;
31770;SDS011;18343;50.152;8.182;2024-02-26T11:25:49;5.47;;;3.53;;
31770;SDS011;18343;50.152;8.182;2024-02-26T11:28:37;5.85;;;3.60;;
31770;SDS011;18343;50.152;8.182;2024-02-26T11:31:24;5.20;;;3.45;;
31770;SDS011;18343;50.152;8.182;2024-02-26T11:34:09;3.67;;;2.58;;
31770;SDS011;18343;50.152;8.182;2024-02-26T11:36:54;4.30;;;2.58;;
31770;SDS011;18343;50.152;8.182;2024-02-26T11:39:40;5.72;;;3.45;;
31770;SDS011;18343;50.152;8.182;2024-02-26T11:42:26;4.65;;;3.70;;
31770;SDS011;18343;50.152;8.182;2024-02-26T11:48:33;5.03;;;3.70;;
31770;SDS011;18343;50.152;8.182;2024-02-26T11:51:17;6.47;;;4.05;;
31770;SDS011;18343;50.152;8.182;2024-02-26T11:54:09;5.18;;;3.60;;
31770;SDS011;18343;50.152;8.182;2024-02-26T11:56:54;7.72;;;4.35;;
31770;SDS011;18343;50.152;8.182;2024-02-26T12:00:11;11.68;;;5.38;;
31770;SDS011;18343;50.152;8.182;2024-02-26T12:02:57;8.85;;;5.10;;
31770;SDS011;18343;50.152;8.182;2024-02-26T12:05:44;13.20;;;6.00;;
31770;SDS011;18343;50.152;8.182;2024-02-26T12:08:29;6.03;;;3.70;;
31770;SDS011;18343;50.152;8.182;2024-02-26T12:11:14;5.55;;;3.70;;
31770;SDS011;18343;50.152;8.182;2024-02-26T12:13:59;3.75;;;3.10;;
31770;SDS011;18343;50.152;8.182;2024-02-26T12:16:45;6.40;;;3.45;;
31770;SDS011;18343;50.152;8.182;2024-02-26T12:19:30;3.95;;;2.70;;
31770;SDS011;18343;50.152;8.182;2024-02-26T12:22:15;7.13;;;3.40;;
31770;SDS011;18343;50.152;8.182;2024-02-26T12:25:00;3.13;;;2.33;;
31770;SDS011;18343;50.152;8.182;2024-02-26T12:27:45;5.53;;;2.47;;
31770;SDS011;18343;50.152;8.182;2024-02-26T12:30:30;2.80;;;2.20;;
31770;SDS011;18343;50.152;8.182;2024-02-26T12:33:16;4.35;;;2.35;;
31770;SDS011;18343;50.152;8.182;2024-02-26T12:36:01;5.45;;;2.55;;
31770;SDS011;18343;50.152;8.182;2024-02-26T12:38:46;4.75;;;2.60;;
31770;SDS011;18343;50.152;8.182;2024-02-26T12:41:31;5.25;;;2.72;;
31770;SDS011;18343;50.152;8.182;2024-02-26T12:44:16;5.10;;;2.50;;
31770;SDS011;18343;50.152;8.182;2024-02-26T12:47:00;3.67;;;2.58;;
31770;SDS011;18343;50.152;8.182;2024-02-26T12:49:47;6.53;;;3.08;;
31770;SDS011;18343;50.152;8.182;2024-02-26T12:52:32;5.32;;;3.13;;
31770;SDS011;18343;50.152;8.182;2024-02-26T12:55:18;5.10;;;3.60;;
31770;SDS011;18343;50.152;8.182;2024-02-26T12:58:05;7.53;;;3.97;;
31770;SDS011;18343;50.152;8.182;2024-02-26T13:00:50;5.22;;;2.88;;
31770;SDS011;18343;50.152;8.182;2024-02-26T13:03:36;3.20;;;2.50;;
31770;SDS011;18343;50.152;8.182;2024-02-26T13:06:22;3.28;;;2.50;;
31770;SDS011;18343;50.152;8.182;2024-02-26T13:09:07;3.13;;;2.50;;
31770;SDS011;18343;50.152;8.182;2024-02-26T13:11:56;4.78;;;2.47;;
31770;SDS011;18343;50.152;8.182;2024-02-26T13:14:41;6.70;;;3.08;;
31770;SDS011;18343;50.152;8.182;2024-02-26T13:17:25;6.00;;;2.90;;
31770;SDS011;18343;50.152;8.182;2024-02-26T13:20:10;6.50;;;3.35;;
31770;SDS011;18343;50.152;8.182;2024-02-26T13:23:03;4.90;;;2.65;;
31770;SDS011;18343;50.152;8.182;2024-02-26T13:25:49;4.05;;;2.58;;
31770;SDS011;18343;50.152;8.182;2024-02-26T13:28:40;5.72;;;2.88;;
31770;SDS011;18343;50.152;8.182;2024-02-26T13:31:25;3.58;;;2.20;;
31770;SDS011;18343;50.152;8.182;2024-02-26T13:34:10;5.28;;;2.33;;
31770;SDS011;18343;50.152;8.182;2024-02-26T13:36:54;4.78;;;2.40;;
31770;SDS011;18343;50.152;8.182;2024-02-26T13:39:42;4.70;;;3.13;;
31770;SDS011;18343;50.152;8.182;2024-02-26T13:42:26;7.20;;;2.92;;
31770;SDS011;18343;50.152;8.182;2024-02-26T13:45:11;8.82;;;2.50;;
31770;SDS011;18343;50.152;8.182;2024-02-26T13:47:59;3.95;;;2.40;;
31770;SDS011;18343;50.152;8.182;2024-02-26T13:50:46;4.65;;;2.47;;
31770;SDS011;18343;50.152;8.182;2024-02-26T13:53:31;6.68;;;3.00;;
31770;SDS011;18343;50.152;8.182;2024-02-26T13:56:17;6.07;;;3.30;;
31770;SDS011;18343;50.152;8.182;2024-02-26T13:59:02;3.58;;;2.15;;
31770;SDS011;18343;50.152;8.182;2024-02-26T14:01:48;5.47;;;2.10;;
31770;SDS011;18343;50.152;8.182;2024-02-26T14:04:32;3.53;;;2.40;;
31770;SDS011;18343;50.152;8.182;2024-02-26T14:07:17;3.60;;;1.98;;
31770;SDS011;18343;50.152;8.182;2024-02-26T14:10:01;5.78;;;3.60;;
31770;SDS011;18343;50.152;8.182;2024-02-26T14:12:47;3.20;;;2.50;;
31770;SDS011;18343;50.152;8.182;2024-02-26T14:15:32;4.50;;;2.22;;
31770;SDS011;18343;50.152;8.182;2024-02-26T14:18:17;4.75;;;2.40;;
31770;SDS011;18343;50.152;8.182;2024-02-26T14:21:02;5.25;;;2.72;;
31770;SDS011;18343;50.152;8.182;2024-02-26T14:23:47;4.30;;;2.72;;
31770;SDS011;18343;50.152;8.182;2024-02-26T14:26:32;4.53;;;2.85;;
31770;SDS011;18343;50.152;8.182;2024-02-26T14:29:18;5.15;;;3.10;;
31770;SDS011;18343;50.152;8.182;2024-02-26T14:32:03;5.40;;;2.65;;
31770;SDS011;18343;50.152;8.182;2024-02-26T14:34:48;6.68;;;3.08;;
31770;SDS011;18343;50.152;8.182;2024-02-26T14:37:33;2.88;;;2.30;;
31770;SDS011;18343;50.152;8.182;2024-02-26T14:40:17;4.80;;;3.28;;
31770;SDS011;18343;50.152;8.182;2024-02-26T14:43:02;5.40;;;3.15;;
31770;SDS011;18343;50.152;8.182;2024-02-26T14:45:48;4.63;;;2.80;;
31770;SDS011;18343;50.152;8.182;2024-02-26T14:48:33;4.45;;;2.90;;
31770;SDS011;18343;50.152;8.182;2024-02-26T14:51:17;3.70;;;2.35;;
31770;SDS011;18343;50.152;8.182;2024-02-26T14:54:02;5.85;;;3.30;;
31770;SDS011;18343;50.152;8.182;2024-02-26T14:56:47;4.88;;;2.88;;
31770;SDS011;18343;50.152;8.182;2024-02-26T14:59:32;7.97;;;3.00;;
31770;SDS011;18343;50.152;8.182;2024-02-26T15:02:18;2.85;;;2.30;;
31770;SDS011;18343;50.152;8.182;2024-02-26T15:05:02;4.63;;;3.10;;
31770;SDS011;18343;50.152;8.182;2024-02-26T15:07:48;4.00;;;3.00;;
31770;SDS011;18343;50.152;8.182;2024-02-26T15:10:33;3.58;;;2.83;;
31770;SDS011;18343;50.152;8.182;2024-02-26T15:13:17;4.00;;;2.65;;
31770;SDS011;18343;50.152;8.182;2024-02-26T15:16:02;5.10;;;2.80;;
31770;SDS011;18343;50.152;8.182;2024-02-26T15:18:49;5.82;;;3.60;;
31770;SDS011;18343;50.152;8.182;2024-02-26T15:21:33;4.15;;;2.90;;
31770;SDS011;18343;50.152;8.182;2024-02-26T15:24:17;7.82;;;3.28;;
31770;SDS011;18343;50.152;8.182;2024-02-26T15:27:02;4.78;;;3.50;;
31770;SDS011;18343;50.152;8.182;2024-02-26T15:29:47;5.47;;;2.22;;
31770;SDS011;18343;50.152;8.182;2024-02-26T15:32:32;4.10;;;2.72;;
31770;SDS011;18343;50.152;8.182;2024-02-26T15:35:18;4.63;;;2.60;;
31770;SDS011;18343;50.152;8.182;2024-02-26T15:38:03;7.07;;;2.65;;
31770;SDS011;18343;50.152;8.182;2024-02-26T15:40:48;3.63;;;2.20;;
31770;SDS011;18343;50.152;8.182;2024-02-26T15:43:32;3.88;;;2.33;;
31770;SDS011;18343;50.152;8.182;2024-02-26T15:46:17;2.47;;;1.92;;
31770;SDS011;18343;50.152;8.182;2024-02-26T15:49:02;3.05;;;1.80;;
31770;SDS011;18343;50.152;8.182;2024-02-26T15:51:47;3.40;;;1.83;;
31770;SDS011;18343;50.152;8.182;2024-02-26T15:54:33;3.35;;;2.40;;
31770;SDS011;18343;50.152;8.182;2024-02-26T15:57:22;3.13;;;2.40;;
31770;SDS011;18343;50.152;8.182;2024-02-26T16:00:07;4.03;;;2.50;;
31770;SDS011;18343;50.152;8.182;2024-02-26T16:02:53;4.30;;;2.30;;
31770;SDS011;18343;50.152;8.182;2024-02-26T16:05:38;3.28;;;2.05;;
31770;SDS011;18343;50.152;8.182;2024-02-26T16:08:24;3.80;;;2.70;;
31770;SDS011;18343;50.152;8.182;2024-02-26T16:11:09;4.10;;;2.60;;
31770;SDS011;18343;50.152;8.182;2024-02-26T16:13:55;5.22;;;3.13;;
31770;SDS011;18343;50.152;8.182;2024-02-26T16:16:52;6.97;;;3.47;;
31770;SDS011;18343;50.152;8.182;2024-02-26T16:19:44;5.20;;;2.95;;
31770;SDS011;18343;50.152;8.182;2024-02-26T16:22:29;7.82;;;4.13;;
31770;SDS011;18343;50.152;8.182;2024-02-26T16:25:15;6.93;;;5.13;;
31770;SDS011;18343;50.152;8.182;2024-02-26T16:28:00;7.22;;;4.90;;
31770;SDS011;18343;50.152;8.182;2024-02-26T16:30:45;10.52;;;5.22;;
31770;SDS011;18343;50.152;8.182;2024-02-26T16:33:30;6.97;;;4.57;;
31770;SDS011;18343;50.152;8.182;2024-02-26T16:36:15;6.90;;;4.80;;
31770;SDS011;18343;50.152;8.182;2024-02-26T16:38:59;7.85;;;4.07;;